Time;durP1;ratioP1;P1;durP2;ratioP2;P2;SDS_P1;SDS_P2;PMS_P1;PMS_P2;Temp;Humidity;BMP_temperature;BMP_pressure;BME280_temperature;BME280_humidity;BME280_pressure;Samples;Min_cycle;Max_cycle;Signal;HPM_P1;HPM_P2
2021/09/24 00:02:02;;;;;;;5.00;2.67;;;21.90;99.90;;;;;;6197085;23;20212;-94
2021/09/24 00:04:38;;;;;;;5.00;2.53;;;21.80;99.90;;;;;;6194362;23;20277;-94
2021/09/24 00:07:11;;;;;;;6.47;3.00;;;21.80;99.90;;;;;;6206501;23;20196;-94
2021/09/24 00:09:55;;;;;;;7.40;3.20;;;21.50;99.90;;;;;;6196122;23;20510;-94
2021/09/24 00:12:27;;;;;;;5.10;2.67;;;21.20;99.90;;;;;;6192316;23;20173;-94
2021/09/24 00:14:58;;;;;;;4.07;2.33;;;21.00;99.90;;;;;;6223197;23;20173;-94
2021/09/24 00:17:30;;;;;;;6.47;3.00;;;20.70;99.90;;;;;;6224638;23;20183;-94
2021/09/24 00:20:04;;;;;;;7.07;2.80;;;20.60;99.90;;;;;;6224438;23;20218;-94
2021/09/24 00:22:35;;;;;;;8.73;3.33;;;20.30;99.90;;;;;;6228597;23;20232;-94
2021/09/24 00:25:07;;;;;;;5.37;2.63;;;20.20;99.90;;;;;;6235037;23;20208;-95
2021/09/24 00:27:41;;;;;;;6.10;2.73;;;20.10;99.90;;;;;;6240848;23;20236;-94
2021/09/24 00:30:14;;;;;;;8.03;3.40;;;19.90;99.90;;;;;;6242384;23;20179;-94
2021/09/24 00:32:45;;;;;;;6.67;2.87;;;20.00;99.90;;;;;;6234925;23;20227;-94
2021/09/24 00:35:18;;;;;;;6.07;2.70;;;20.00;99.90;;;;;;6217694;23;20176;-94
2021/09/24 00:40:25;;;;;;;3.80;2.57;;;19.90;99.90;;;;;;6242909;23;20220;-94
2021/09/24 00:42:57;;;;;;;5.33;2.50;;;19.90;99.90;;;;;;6237049;23;20173;-95
2021/09/24 00:45:28;;;;;;;6.20;2.60;;;19.80;99.90;;;;;;6199979;23;20207;-94
2021/09/24 00:48:01;;;;;;;4.63;2.63;;;19.60;99.90;;;;;;6222794;23;20187;-94
2021/09/24 00:50:38;;;;;;;7.77;3.20;;;19.50;99.90;;;;;;6223653;23;20251;-95
2021/09/24 00:53:11;;;;;;;5.87;2.87;;;19.50;99.90;;;;;;6173461;23;20169;-94
2021/09/24 00:55:42;;;;;;;6.70;2.70;;;19.30;99.90;;;;;;6242029;23;20249;-95
2021/09/24 00:58:16;;;;;;;6.20;2.97;;;19.20;99.90;;;;;;6240039;23;20176;-95
2021/09/24 01:00:49;;;;;;;4.27;2.33;;;19.20;99.90;;;;;;6239476;23;20179;-94
2021/09/24 01:03:22;;;;;;;5.13;3.10;;;19.10;99.90;;;;;;6227045;23;20206;-94
2021/09/24 01:05:58;;;;;;;4.03;2.70;;;19.00;99.90;;;;;;6201965;23;20206;-94
2021/09/24 01:08:32;;;;;;;6.33;2.50;;;18.80;99.90;;;;;;6228174;23;20183;-93
2021/09/24 01:11:04;;;;;;;5.83;2.80;;;18.70;99.90;;;;;;6228564;23;20204;-93
2021/09/24 01:13:35;;;;;;;5.47;2.20;;;18.70;99.90;;;;;;6227227;23;20185;-94
2021/09/24 01:16:11;;;;;;;5.67;2.80;;;18.60;99.90;;;;;;6229846;23;20168;-93
2021/09/24 01:18:44;;;;;;;7.83;2.93;;;18.60;99.90;;;;;;6224929;23;20503;-93
2021/09/24 01:24:46;;;;;;;4.67;2.77;;;18.50;99.90;;;;;;6240907;23;20164;-93
2021/09/24 01:27:17;;;;;;;11.93;3.27;;;18.50;99.90;;;;;;6211522;22;20196;-93
2021/09/24 01:29:55;;;;;;;7.70;3.00;;;18.40;99.90;;;;;;6242724;22;20199;-91
2021/09/24 01:35:16;;;;;;;6.80;2.67;;;18.20;99.90;;;;;;6232015;23;20346;-92
2021/09/24 01:37:50;;;;;;;7.20;2.60;;;18.00;99.90;;;;;;6224173;23;20251;-92
2021/09/24 01:40:24;;;;;;;9.03;3.43;;;17.90;99.90;;;;;;6229209;23;20260;-92
2021/09/24 01:42:56;;;;;;;6.60;2.87;;;17.90;99.90;;;;;;6221516;23;20592;-92
2021/09/24 01:45:30;;;;;;;4.63;3.00;;;17.90;99.90;;;;;;6235862;23;20200;-92
2021/09/24 01:48:03;;;;;;;5.80;2.80;;;17.80;99.90;;;;;;6210132;23;20196;-91
2021/09/24 01:50:37;;;;;;;6.13;2.73;;;17.70;99.90;;;;;;6201607;23;20168;-92
2021/09/24 01:53:12;;;;;;;6.50;3.10;;;17.60;99.90;;;;;;6225930;23;20179;-92
2021/09/24 01:55:50;;;;;;;5.70;3.00;;;17.60;99.90;;;;;;6220977;23;20270;-93
2021/09/24 01:58:22;;;;;;;6.57;3.27;;;17.50;99.90;;;;;;6222398;23;20164;-92
2021/09/24 02:00:55;;;;;;;6.87;3.00;;;17.50;99.90;;;;;;6222406;23;21032;-93
2021/09/24 02:03:27;;;;;;;6.40;3.57;;;17.40;99.90;;;;;;6229118;23;20173;-95
2021/09/24 02:06:00;;;;;;;5.53;3.47;;;17.30;99.90;;;;;;6236376;23;20239;-93
2021/09/24 02:08:31;;;;;;;7.23;3.83;;;17.20;99.90;;;;;;6234066;23;20174;-93
2021/09/24 02:11:10;;;;;;;8.43;3.60;;;17.10;99.90;;;;;;6207036;23;20180;-94
2021/09/24 02:13:43;;;;;;;7.07;3.53;;;16.90;99.90;;;;;;6206155;23;20489;-93
2021/09/24 02:16:17;;;;;;;4.67;3.20;;;16.70;99.90;;;;;;6231000;23;20173;-94
2021/09/24 02:18:49;;;;;;;5.57;3.47;;;16.60;99.90;;;;;;6233315;23;20176;-94
2021/09/24 02:21:22;;;;;;;7.60;3.33;;;16.50;99.90;;;;;;6232229;23;20212;-93
2021/09/24 02:26:56;;;;;;;6.13;3.33;;;16.40;99.90;;;;;;6230827;23;20263;-92
2021/09/24 02:29:29;;;;;;;6.73;3.63;;;16.30;99.90;;;;;;6228151;23;20180;-91
2021/09/24 02:32:00;;;;;;;8.20;6.00;;;16.30;99.90;;;;;;6227934;23;20176;-93
2021/09/24 02:34:33;;;;;;;8.57;5.10;;;16.30;99.90;;;;;;6233710;23;20184;-92
2021/09/24 02:37:05;;;;;;;7.87;4.70;;;16.10;99.90;;;;;;6232189;23;20191;-92
2021/09/24 02:39:38;;;;;;;5.40;3.47;;;16.10;99.90;;;;;;6236366;23;20176;-92
2021/09/24 02:48:05;;;;;;;7.37;3.23;;;15.90;99.90;;;;;;6203717;23;20179;-93
2021/09/24 02:50:38;;;;;;;6.03;3.20;;;15.90;99.90;;;;;;6198966;23;20224;-94
2021/09/24 02:53:10;;;;;;;8.33;3.40;;;15.80;99.90;;;;;;6207141;23;20177;-94
2021/09/24 02:55:41;;;;;;;6.00;3.30;;;15.80;99.90;;;;;;6197727;23;20216;-93
2021/09/24 02:58:16;;;;;;;6.13;3.60;;;15.80;99.90;;;;;;6204860;23;20177;-93
2021/09/24 03:00:50;;;;;;;4.57;3.20;;;15.80;99.90;;;;;;6208332;23;20192;-93
2021/09/24 03:03:33;;;;;;;4.43;2.90;;;15.70;99.90;;;;;;6211781;23;20213;-93
2021/09/24 03:06:18;;;;;;;3.93;2.67;;;15.60;99.90;;;;;;6212118;23;20199;-94
2021/09/24 03:16:53;;;;;;;4.90;3.10;;;15.40;99.90;;;;;;6240242;23;20250;-92
2021/09/24 03:19:26;;;;;;;9.63;3.90;;;15.30;99.90;;;;;;6241365;23;20183;-93
2021/09/24 03:21:58;;;;;;;6.93;3.40;;;15.20;99.90;;;;;;6240485;23;20215;-92
2021/09/24 03:24:36;;;;;;;5.27;3.27;;;15.20;99.90;;;;;;6217299;23;20195;-94
2021/09/24 03:27:09;;;;;;;4.77;3.30;;;15.10;99.90;;;;;;6234264;23;20218;-93
2021/09/24 03:29:41;;;;;;;5.20;3.57;;;15.10;99.90;;;;;;6239521;23;20207;-93
2021/09/24 03:32:18;;;;;;;5.17;3.47;;;15.10;99.90;;;;;;6234471;23;20181;-93
2021/09/24 03:34:51;;;;;;;3.50;3.20;;;15.00;99.90;;;;;;6231608;23;20177;-92
2021/09/24 03:37:26;;;;;;;5.50;3.20;;;15.00;99.90;;;;;;6207382;23;20176;-90
2021/09/24 03:42:37;;;;;;;7.13;3.33;;;15.00;99.90;;;;;;6239747;23;20279;-92
2021/09/24 03:45:10;;;;;;;7.00;3.43;;;15.00;99.90;;;;;;6238115;23;20199;-92
2021/09/24 03:48:02;;;;;;;5.87;3.17;;;15.00;99.90;;;;;;6244395;23;20211;-91
2021/09/24 04:01:18;;;;;;;4.90;3.40;;;14.90;99.90;;;;;;6268155;23;20186;-91
2021/09/24 04:03:54;;;;;;;6.17;3.53;;;14.90;99.90;;;;;;6267953;23;20175;-92
2021/09/24 04:06:27;;;;;;;6.83;3.67;;;14.90;99.90;;;;;;6264954;23;20745;-92
2021/09/24 04:09:00;;;;;;;6.27;3.73;;;14.80;99.90;;;;;;6238686;23;20178;-92
2021/09/24 04:11:39;;;;;;;6.87;3.90;;;14.70;99.90;;;;;;6265405;22;20180;-92
2021/09/24 04:17:01;;;;;;;6.13;3.57;;;14.70;99.90;;;;;;6265763;22;20171;-91
2021/09/24 04:19:36;;;;;;;5.30;4.13;;;14.70;99.90;;;;;;6266087;23;20168;-92
2021/09/24 04:22:08;;;;;;;5.23;3.57;;;14.60;99.90;;;;;;6258559;22;20172;-92
2021/09/24 04:24:40;;;;;;;6.17;3.67;;;14.60;99.90;;;;;;6253560;23;20179;-93
2021/09/24 04:27:13;;;;;;;5.00;3.33;;;14.50;99.90;;;;;;6257830;22;20200;-92
2021/09/24 04:29:45;;;;;;;4.97;3.20;;;14.50;99.90;;;;;;6225924;23;20176;-92
2021/09/24 04:32:16;;;;;;;5.17;3.30;;;14.50;99.90;;;;;;6257986;22;20206;-92
2021/09/24 04:34:50;;;;;;;5.57;3.17;;;14.40;99.90;;;;;;6259751;23;20223;-91
2021/09/24 04:37:22;;;;;;;4.73;3.40;;;14.40;99.90;;;;;;6253591;23;20511;-92
2021/09/24 04:39:56;;;;;;;7.27;3.40;;;14.40;99.90;;;;;;6254100;23;20198;-93
2021/09/24 04:42:28;;;;;;;9.97;4.03;;;14.40;99.90;;;;;;6226309;23;20653;-93
2021/09/24 04:45:01;;;;;;;5.17;3.37;;;14.30;99.90;;;;;;6253188;22;20171;-92
2021/09/24 04:47:33;;;;;;;6.40;3.30;;;14.30;99.90;;;;;;6255040;22;20210;-94
2021/09/24 04:50:07;;;;;;;4.90;3.30;;;14.30;99.90;;;;;;6236077;23;20176;-93
2021/09/24 04:52:40;;;;;;;4.60;3.30;;;14.30;99.90;;;;;;6261253;23;20206;-92
2021/09/24 04:55:12;;;;;;;5.57;3.40;;;14.20;99.90;;;;;;6269293;23;20187;-93
2021/09/24 04:57:49;;;;;;;6.13;3.60;;;14.10;99.90;;;;;;6267625;23;20164;-93
2021/09/24 05:00:21;;;;;;;5.40;3.33;;;14.10;99.90;;;;;;6256275;22;20183;-94
2021/09/24 05:02:53;;;;;;;6.87;3.57;;;14.00;99.90;;;;;;6258603;23;20175;-92
2021/09/24 05:05:27;;;;;;;6.57;3.30;;;14.00;99.90;;;;;;6252079;23;20176;-93
2021/09/24 05:07:58;;;;;;;5.37;3.40;;;14.00;99.90;;;;;;6250779;23;20202;-93
2021/09/24 05:10:29;;;;;;;5.67;3.27;;;13.90;99.90;;;;;;6259563;23;20183;-93
2021/09/24 05:13:01;;;;;;;6.80;3.10;;;13.90;99.90;;;;;;6254749;22;20207;-93
2021/09/24 05:15:33;;;;;;;7.50;3.70;;;13.80;99.90;;;;;;6238995;23;20173;-93
2021/09/24 05:18:06;;;;;;;6.73;3.70;;;13.80;99.90;;;;;;6223351;23;20179;-93
2021/09/24 05:20:40;;;;;;;5.53;3.67;;;13.80;99.90;;;;;;6229313;23;20191;-94
2021/09/24 05:23:11;;;;;;;5.23;3.40;;;13.80;99.90;;;;;;6224717;23;20276;-93
2021/09/24 05:25:43;;;;;;;6.70;3.73;;;13.70;99.90;;;;;;6205264;23;20216;-94
2021/09/24 05:28:15;;;;;;;6.13;3.20;;;13.70;99.90;;;;;;6221331;23;20200;-94
2021/09/24 05:30:46;;;;;;;4.63;3.10;;;13.70;99.90;;;;;;6220435;23;20188;-94
2021/09/24 05:33:17;;;;;;;4.67;3.53;;;13.70;99.90;;;;;;6221437;23;20376;-94
2021/09/24 05:35:51;;;;;;;9.87;4.10;;;13.60;99.90;;;;;;6221432;23;20165;-94
2021/09/24 05:38:23;;;;;;;6.30;4.17;;;13.60;99.90;;;;;;6221541;23;20172;-94
2021/09/24 05:40:54;;;;;;;6.53;4.63;;;13.60;99.90;;;;;;6219979;23;20199;-94
2021/09/24 05:43:25;;;;;;;7.87;4.60;;;13.60;99.90;;;;;;6225866;23;20187;-94
2021/09/24 05:45:58;;;;;;;6.50;4.07;;;13.50;99.90;;;;;;6222367;23;20173;-94
2021/09/24 05:48:30;;;;;;;7.33;5.47;;;13.40;99.90;;;;;;6223937;23;20259;-94
2021/09/24 05:51:04;;;;;;;6.43;4.37;;;13.30;99.90;;;;;;6225444;23;20164;-94
2021/09/24 05:53:36;;;;;;;6.67;3.97;;;13.30;99.90;;;;;;6205870;23;20200;-90
2021/09/24 05:56:08;;;;;;;5.20;3.63;;;13.30;99.90;;;;;;6212445;23;20212;-94
2021/09/24 06:01:15;;;;;;;6.80;3.97;;;13.30;99.90;;;;;;6232445;23;20192;-92
2021/09/24 06:03:48;;;;;;;5.07;3.60;;;13.20;99.90;;;;;;6239628;23;20207;-92
2021/09/24 06:06:22;;;;;;;5.50;4.10;;;13.20;99.90;;;;;;6216972;23;20228;-93
2021/09/24 06:08:54;;;;;;;8.33;3.87;;;13.20;99.90;;;;;;6242645;23;20192;-93
2021/09/24 06:11:25;;;;;;;6.57;3.70;;;13.20;99.90;;;;;;6234846;23;20168;-94
2021/09/24 06:13:56;;;;;;;7.40;4.00;;;13.20;99.90;;;;;;6242058;23;20224;-92
2021/09/24 06:16:27;;;;;;;6.07;3.97;;;13.20;99.90;;;;;;6235905;23;20224;-94
2021/09/24 06:19:00;;;;;;;4.30;3.50;;;13.10;99.90;;;;;;6220188;23;20183;-94
2021/09/24 06:21:34;;;;;;;4.63;3.60;;;13.10;99.90;;;;;;6224320;23;20496;-93
2021/09/24 06:24:06;;;;;;;7.80;3.80;;;13.10;99.90;;;;;;6222291;23;20175;-94
2021/09/24 06:26:38;;;;;;;5.67;3.70;;;13.00;99.90;;;;;;6221140;23;20184;-93
2021/09/24 06:29:11;;;;;;;6.23;3.63;;;13.00;99.90;;;;;;6221742;23;20219;-93
2021/09/24 06:31:42;;;;;;;6.00;3.70;;;13.00;99.90;;;;;;6235418;23;20176;-93
2021/09/24 06:34:17;;;;;;;4.23;3.80;;;13.00;99.90;;;;;;6233028;23;20172;-93
2021/09/24 06:36:51;;;;;;;6.53;4.17;;;12.90;99.90;;;;;;6220603;23;20295;-93
2021/09/24 06:39:22;;;;;;;4.77;3.50;;;12.90;99.90;;;;;;6220472;23;20173;-93
2021/09/24 06:41:54;;;;;;;6.03;3.80;;;12.90;99.90;;;;;;6193763;23;20168;-93
2021/09/24 06:44:26;;;;;;;6.33;3.80;;;12.90;99.90;;;;;;6220696;23;20218;-93
2021/09/24 06:46:58;;;;;;;5.63;4.00;;;12.90;99.90;;;;;;6220438;23;20561;-93
2021/09/24 06:49:29;;;;;;;5.90;3.70;;;12.80;99.90;;;;;;6220843;23;20667;-93
2021/09/24 06:52:06;;;;;;;5.73;3.93;;;12.80;99.90;;;;;;6219654;23;20184;-93
2021/09/24 06:54:40;;;;;;;9.10;4.30;;;12.80;99.90;;;;;;6193959;23;20183;-93
2021/09/24 06:57:13;;;;;;;6.17;3.77;;;12.80;99.90;;;;;;6220346;23;20183;-92
2021/09/24 06:59:45;;;;;;;5.93;3.80;;;12.80;99.90;;;;;;6220649;23;20177;-92
2021/09/24 07:02:17;;;;;;;6.23;3.90;;;12.80;99.90;;;;;;6194573;23;20235;-93
2021/09/24 07:04:48;;;;;;;12.83;4.27;;;12.70;99.90;;;;;;6221111;23;20207;-92
2021/09/24 07:07:23;;;;;;;7.30;4.00;;;12.70;99.90;;;;;;6221410;23;20177;-92
2021/09/24 07:09:56;;;;;;;7.43;4.50;;;12.70;99.90;;;;;;6220692;23;20194;-91
2021/09/24 07:12:28;;;;;;;5.37;4.03;;;12.70;99.90;;;;;;6219535;23;20239;-92
2021/09/24 07:14:59;;;;;;;5.93;4.13;;;12.70;99.90;;;;;;6194832;23;20296;-92
2021/09/24 07:17:30;;;;;;;9.20;4.43;;;12.60;99.90;;;;;;6219973;23;20181;-92
2021/09/24 07:20:03;;;;;;;7.80;4.50;;;12.60;99.90;;;;;;6221769;23;20505;-92
2021/09/24 07:22:36;;;;;;;4.87;4.33;;;12.60;99.90;;;;;;6199899;23;20172;-92
2021/09/24 07:25:09;;;;;;;7.57;4.27;;;12.50;99.90;;;;;;6225416;23;20169;-93
2021/09/24 07:27:42;;;;;;;7.40;4.30;;;12.50;99.90;;;;;;6219933;23;20176;-92
2021/09/24 07:30:14;;;;;;;5.67;4.57;;;12.50;99.90;;;;;;6220859;23;20526;-93
2021/09/24 07:32:48;;;;;;;7.00;4.07;;;12.50;99.90;;;;;;6222054;23;20175;-93
2021/09/24 07:35:19;;;;;;;8.40;4.20;;;12.50;99.90;;;;;;6221720;23;20176;-94
2021/09/24 07:37:52;;;;;;;7.87;4.60;;;12.50;99.90;;;;;;6221927;23;20172;-93
2021/09/24 07:40:24;;;;;;;5.17;4.37;;;12.50;99.90;;;;;;6222756;23;20169;-94
2021/09/24 07:43:00;;;;;;;7.37;4.30;;;12.40;99.90;;;;;;6222293;23;20242;-94
2021/09/24 07:45:32;;;;;;;8.20;4.40;;;12.40;99.90;;;;;;6221801;23;20611;-93
2021/09/24 07:48:04;;;;;;;6.60;3.90;;;12.40;99.90;;;;;;6226086;23;20180;-93
2021/09/24 07:50:37;;;;;;;7.23;4.20;;;12.40;99.90;;;;;;6233273;23;20176;-94
2021/09/24 07:53:13;;;;;;;6.37;4.13;;;12.40;99.90;;;;;;6235233;23;20173;-92
2021/09/24 07:55:45;;;;;;;7.20;4.00;;;12.40;99.90;;;;;;6233205;23;20270;-91
2021/09/24 07:58:17;;;;;;;6.30;4.00;;;12.30;99.90;;;;;;6235774;23;20412;-92
2021/09/24 08:00:54;;;;;;;5.40;4.30;;;12.30;99.90;;;;;;6230938;23;20176;-92
2021/09/24 08:03:25;;;;;;;5.23;4.50;;;12.30;99.90;;;;;;6222522;23;20212;-93
2021/09/24 08:05:57;;;;;;;6.83;5.30;;;12.30;99.90;;;;;;6227715;23;20172;-93
2021/09/24 08:08:31;;;;;;;6.70;4.50;;;12.30;99.90;;;;;;6243082;23;20203;-94
2021/09/24 08:11:03;;;;;;;8.47;5.37;;;12.20;99.90;;;;;;6241941;23;20172;-94
2021/09/24 08:13:35;;;;;;;8.50;4.70;;;12.20;99.90;;;;;;6228716;23;20172;-93
2021/09/24 08:16:07;;;;;;;9.70;4.83;;;12.10;99.90;;;;;;6223399;23;20183;-93
2021/09/24 08:18:39;;;;;;;7.83;4.80;;;12.10;99.90;;;;;;6225699;23;20176;-93
2021/09/24 08:21:14;;;;;;;8.57;5.00;;;12.10;99.90;;;;;;6223698;23;20164;-93
2021/09/24 08:23:53;;;;;;;8.03;5.23;;;12.10;99.90;;;;;;6222480;23;20180;-94
2021/09/24 08:26:26;;;;;;;6.40;4.50;;;12.10;99.90;;;;;;6222242;23;20215;-94
2021/09/24 08:28:57;;;;;;;7.37;4.77;;;12.00;99.90;;;;;;6221274;23;20226;-93
2021/09/24 08:31:31;;;;;;;11.80;5.10;;;12.00;99.90;;;;;;6222237;23;20184;-94
2021/09/24 08:34:02;;;;;;;9.27;4.90;;;12.10;99.90;;;;;;6222649;23;20161;-93
2021/09/24 08:36:34;;;;;;;8.47;4.20;;;12.00;99.90;;;;;;6222732;23;20658;-93
2021/09/24 08:39:08;;;;;;;10.07;4.50;;;12.00;99.90;;;;;;6222711;23;20216;-93
2021/09/24 08:41:40;;;;;;;8.23;4.77;;;12.00;99.90;;;;;;6222362;23;20180;-93
2021/09/24 08:44:11;;;;;;;8.80;4.83;;;11.90;99.90;;;;;;6221612;23;20200;-94
2021/09/24 08:46:43;;;;;;;6.67;4.80;;;11.90;99.90;;;;;;6196520;23;20501;-94
2021/09/24 08:49:14;;;;;;;8.33;4.80;;;11.90;99.90;;;;;;6221191;23;20215;-94
2021/09/24 08:51:46;;;;;;;4.90;4.17;;;11.90;99.90;;;;;;6220728;23;20184;-92
2021/09/24 08:54:21;;;;;;;10.00;5.00;;;11.90;99.90;;;;;;6221405;23;20200;-93
2021/09/24 08:56:54;;;;;;;6.37;4.70;;;11.90;99.90;;;;;;6222223;23;20168;-93
2021/09/24 08:59:26;;;;;;;7.73;4.53;;;11.90;99.90;;;;;;6171435;23;20623;-93
2021/09/24 09:02:04;;;;;;;7.23;4.83;;;11.90;99.90;;;;;;6195247;23;20172;-92
2021/09/24 09:04:37;;;;;;;7.00;4.70;;;11.80;99.90;;;;;;6220863;23;20168;-92
2021/09/24 09:07:10;;;;;;;8.70;4.53;;;11.80;99.90;;;;;;6223905;23;20173;-93
2021/09/24 09:09:45;;;;;;;8.03;4.90;;;11.80;99.90;;;;;;6220693;23;20668;-93
2021/09/24 09:12:20;;;;;;;7.60;4.43;;;11.80;99.90;;;;;;6225224;23;20176;-93
2021/09/24 09:15:03;;;;;;;5.97;4.80;;;11.80;99.90;;;;;;6220470;23;20180;-92
2021/09/24 09:17:39;;;;;;;8.43;5.03;;;11.70;99.90;;;;;;6224342;23;20203;-93
2021/09/24 09:20:17;;;;;;;7.90;4.87;;;11.60;99.90;;;;;;6194681;23;20180;-94
2021/09/24 09:23:13;;;;;;;7.60;4.40;;;11.60;99.90;;;;;;6224328;23;20521;-93
2021/09/24 09:25:49;;;;;;;5.87;4.30;;;11.60;99.90;;;;;;6201007;23;20243;-93
2021/09/24 09:28:30;;;;;;;7.97;4.47;;;11.60;99.90;;;;;;6224252;23;20251;-93
2021/09/24 09:31:03;;;;;;;6.30;4.67;;;11.60;99.90;;;;;;6221204;23;20539;-93
2021/09/24 09:33:38;;;;;;;6.17;4.97;;;11.60;99.90;;;;;;6222069;23;20164;-93
2021/09/24 09:36:09;;;;;;;6.80;4.57;;;11.60;99.90;;;;;;6221372;23;20195;-93
2021/09/24 09:38:44;;;;;;;8.00;4.97;;;11.60;99.90;;;;;;6221021;23;20195;-94
2021/09/24 09:41:22;;;;;;;5.70;4.10;;;11.60;99.90;;;;;;6225864;23;20180;-93
2021/09/24 09:43:56;;;;;;;8.73;5.40;;;11.60;99.90;;;;;;6236509;23;20192;-93
2021/09/24 09:46:30;;;;;;;6.73;4.60;;;11.60;99.90;;;;;;6222194;23;20184;-94
2021/09/24 09:49:10;;;;;;;7.70;4.30;;;11.60;99.90;;;;;;6221864;23;20188;-94
2021/09/24 09:51:44;;;;;;;8.43;5.30;;;11.60;99.90;;;;;;6221614;23;20534;-94
2021/09/24 09:54:30;;;;;;;6.80;5.30;;;11.50;99.90;;;;;;6195403;23;20161;-93
2021/09/24 09:57:15;;;;;;;7.03;4.33;;;11.50;99.90;;;;;;6201618;23;20169;-93
2021/09/24 09:59:53;;;;;;;9.40;4.87;;;11.50;99.90;;;;;;6202098;23;20232;-93
2021/09/24 10:02:31;;;;;;;7.67;5.10;;;11.50;99.90;;;;;;6218971;23;20517;-93
2021/09/24 10:05:03;;;;;;;6.57;5.10;;;11.50;99.90;;;;;;6220810;23;20195;-93
2021/09/24 10:07:38;;;;;;;8.17;4.90;;;11.50;99.90;;;;;;6219879;23;20184;-93
2021/09/24 10:10:12;;;;;;;6.27;4.90;;;11.50;99.90;;;;;;6220539;23;20203;-93
2021/09/24 10:12:47;;;;;;;8.17;5.43;;;11.50;99.90;;;;;;6220026;23;20235;-93
2021/09/24 10:15:18;;;;;;;8.37;5.33;;;11.50;99.90;;;;;;6194779;23;20175;-92
2021/09/24 10:17:50;;;;;;;7.33;5.40;;;11.50;99.90;;;;;;6220775;23;20511;-93
2021/09/24 10:20:21;;;;;;;9.73;5.37;;;11.50;99.90;;;;;;6221553;23;20172;-94
2021/09/24 10:22:52;;;;;;;8.67;5.03;;;11.50;99.90;;;;;;6221442;23;20591;-94
2021/09/24 10:25:25;;;;;;;9.17;6.13;;;11.50;99.90;;;;;;6200080;23;20191;-94
2021/09/24 10:28:04;;;;;;;9.40;6.50;;;11.40;99.90;;;;;;6242216;23;20164;-94
2021/09/24 10:30:37;;;;;;;9.17;5.97;;;11.40;99.90;;;;;;6241566;23;20188;-94
2021/09/24 10:33:11;;;;;;;7.93;6.27;;;11.50;99.90;;;;;;6240270;23;20171;-95
2021/09/24 10:35:50;;;;;;;8.97;5.77;;;11.50;99.90;;;;;;6230902;23;20230;-94
2021/09/24 10:38:24;;;;;;;8.03;5.90;;;11.50;99.90;;;;;;6222652;23;20180;-93
2021/09/24 10:41:02;;;;;;;12.83;5.77;;;11.50;99.90;;;;;;6196212;23;20213;-94
2021/09/24 10:43:52;;;;;;;10.23;5.83;;;11.50;99.90;;;;;;6216318;23;20157;-94
2021/09/24 10:46:39;;;;;;;10.23;5.67;;;11.50;99.90;;;;;;6238566;23;20173;-94
2021/09/24 10:49:37;;;;;;;10.40;5.53;;;11.40;99.90;;;;;;6240360;23;20172;-94
2021/09/24 10:52:21;;;;;;;8.13;5.83;;;11.50;99.90;;;;;;6175673;23;20184;-93
2021/09/24 10:54:57;;;;;;;9.17;6.13;;;11.40;99.90;;;;;;6240890;23;20183;-93
2021/09/24 10:57:53;;;;;;;8.57;6.00;;;11.40;99.90;;;;;;6240225;23;20232;-93
2021/09/24 11:00:30;;;;;;;11.40;6.67;;;11.40;99.90;;;;;;6237104;23;20251;-94
2021/09/24 11:03:10;;;;;;;10.60;6.50;;;11.40;99.90;;;;;;6225108;23;20220;-94
2021/09/24 11:06:06;;;;;;;9.83;6.73;;;11.40;99.90;;;;;;6226391;23;20176;-93
2021/09/24 11:08:48;;;;;;;10.83;7.37;;;11.40;99.90;;;;;;6195155;23;20184;-94
2021/09/24 11:11:25;;;;;;;11.20;7.47;;;11.40;99.90;;;;;;6226052;23;20204;-93
2021/09/24 11:14:02;;;;;;;9.60;7.10;;;11.40;99.90;;;;;;6226055;23;20176;-93
2021/09/24 11:16:48;;;;;;;10.37;7.67;;;11.30;99.90;;;;;;6227107;23;20176;-93
2021/09/24 11:19:34;;;;;;;11.53;7.80;;;11.30;99.90;;;;;;6238452;23;20219;-94
2021/09/24 11:22:22;;;;;;;11.50;8.40;;;11.30;99.90;;;;;;6240558;23;20167;-93
2021/09/24 11:25:10;;;;;;;12.10;8.30;;;11.30;99.90;;;;;;6241866;23;20182;-94
2021/09/24 11:27:44;;;;;;;15.80;8.30;;;11.30;99.90;;;;;;6236795;23;20499;-95
2021/09/24 11:30:23;;;;;;;15.27;8.17;;;11.30;99.90;;;;;;6210999;23;20211;-92
2021/09/24 11:32:58;;;;;;;10.67;7.80;;;11.30;99.90;;;;;;6239626;23;20172;-92
2021/09/24 11:35:39;;;;;;;13.90;8.67;;;11.30;99.90;;;;;;6243553;23;20210;-94
2021/09/24 11:38:18;;;;;;;11.80;8.03;;;11.20;99.90;;;;;;6243369;23;20171;-93
2021/09/24 11:40:55;;;;;;;10.37;8.53;;;11.30;99.90;;;;;;6238969;23;20180;-93
2021/09/24 11:43:30;;;;;;;13.10;7.43;;;11.20;99.90;;;;;;6205536;23;20272;-93
2021/09/24 11:46:11;;;;;;;10.47;7.83;;;11.10;99.90;;;;;;6212702;23;20223;-93
2021/09/24 11:48:46;;;;;;;11.53;7.57;;;11.10;99.90;;;;;;6213259;23;20161;-93
2021/09/24 11:51:22;;;;;;;11.57;7.73;;;11.00;99.90;;;;;;6212124;23;20184;-93
2021/09/24 11:53:57;;;;;;;14.07;7.10;;;11.00;99.90;;;;;;6210304;23;20169;-93
2021/09/24 11:56:36;;;;;;;13.87;7.63;;;11.00;99.90;;;;;;6194482;23;20176;-92
2021/09/24 11:59:09;;;;;;;11.63;7.33;;;11.00;99.90;;;;;;6193300;23;20168;-94
2021/09/24 12:01:44;;;;;;;13.17;7.37;;;10.90;99.90;;;;;;6192837;23;20500;-92
2021/09/24 12:04:19;;;;;;;12.07;7.47;;;10.90;99.90;;;;;;6194680;23;20175;-92
2021/09/24 12:06:53;;;;;;;11.53;7.33;;;10.90;99.90;;;;;;6194118;23;20615;-92
2021/09/24 12:09:27;;;;;;;10.97;7.77;;;10.90;99.90;;;;;;6191694;23;20708;-92
2021/09/24 12:11:59;;;;;;;10.37;7.93;;;10.90;99.90;;;;;;6192068;23;20208;-92
2021/09/24 12:14:32;;;;;;;13.87;9.87;;;10.90;99.90;;;;;;6192701;23;20224;-92
2021/09/24 12:17:09;;;;;;;18.60;11.03;;;11.00;99.90;;;;;;6192566;23;20165;-92
2021/09/24 12:19:45;;;;;;;19.37;12.30;;;11.10;99.90;;;;;;6162840;23;20572;-93
2021/09/24 12:22:17;;;;;;;21.07;12.03;;;11.10;99.90;;;;;;6162285;23;20597;-91
2021/09/24 12:24:48;;;;;;;24.93;13.07;;;11.20;99.90;;;;;;6166033;23;20178;-92
2021/09/24 12:27:29;;;;;;;20.27;12.87;;;11.20;99.90;;;;;;6165523;23;20621;-92
2021/09/24 12:30:14;;;;;;;18.87;13.07;;;11.20;99.90;;;;;;6163837;23;20236;-92
2021/09/24 12:32:47;;;;;;;19.57;12.43;;;11.30;99.90;;;;;;6162137;23;20192;-93
2021/09/24 12:35:23;;;;;;;20.23;12.57;;;11.30;99.90;;;;;;6164132;23;20181;-93
2021/09/24 12:37:55;;;;;;;21.93;12.37;;;11.30;99.90;;;;;;6170351;23;20177;-92
2021/09/24 12:40:26;;;;;;;24.37;12.43;;;11.30;99.90;;;;;;6182798;23;20181;-93
2021/09/24 12:43:00;;;;;;;21.10;12.33;;;11.30;99.90;;;;;;6191848;23;20176;-94
2021/09/24 12:45:40;;;;;;;18.67;12.10;;;11.20;99.90;;;;;;6209096;23;20157;-93
2021/09/24 12:48:15;;;;;;;21.77;13.57;;;11.20;99.90;;;;;;6207767;23;20184;-93
2021/09/24 12:50:51;;;;;;;18.63;13.17;;;11.10;99.90;;;;;;6193607;23;20193;-92
2021/09/24 12:53:24;;;;;;;20.70;12.07;;;11.10;99.90;;;;;;6193926;23;20234;-93
2021/09/24 12:55:58;;;;;;;18.97;12.57;;;11.10;99.90;;;;;;6195567;23;20177;-92
2021/09/24 12:58:38;;;;;;;22.07;12.63;;;11.10;99.90;;;;;;6192059;23;20196;-92
2021/09/24 13:01:15;;;;;;;16.30;11.70;;;11.10;99.90;;;;;;6190800;23;20180;-92
2021/09/24 13:03:48;;;;;;;19.93;11.40;;;11.00;99.90;;;;;;6191258;23;20187;-92
2021/09/24 13:06:26;;;;;;;18.20;12.00;;;11.00;99.90;;;;;;6167600;23;20166;-92
2021/09/24 13:08:59;;;;;;;16.63;11.43;;;11.00;99.90;;;;;;6202841;23;20177;-92
2021/09/24 13:11:33;;;;;;;19.30;11.87;;;11.00;99.90;;;;;;6205564;23;20200;-91
2021/09/24 13:14:07;;;;;;;17.30;11.20;;;10.90;99.90;;;;;;6178737;23;20235;-92
2021/09/24 13:16:39;;;;;;;18.13;11.00;;;10.90;99.90;;;;;;6205803;23;20165;-93
2021/09/24 13:19:10;;;;;;;18.93;11.40;;;10.90;99.90;;;;;;6193274;23;20170;-93
2021/09/24 13:21:45;;;;;;;19.13;12.33;;;10.90;99.90;;;;;;6190376;23;20181;-93
2021/09/24 13:24:18;;;;;;;17.57;10.77;;;10.80;99.90;;;;;;6192924;23;20199;-93
2021/09/24 13:26:52;;;;;;;19.83;12.27;;;10.70;99.90;;;;;;6191783;23;20251;-93
2021/09/24 13:29:24;;;;;;;16.73;10.97;;;10.80;99.90;;;;;;6192954;23;20177;-93
2021/09/24 13:31:57;;;;;;;18.90;11.87;;;10.70;99.90;;;;;;6189857;23;20201;-93
2021/09/24 13:34:29;;;;;;;17.07;11.13;;;10.70;99.90;;;;;;6191173;23;20239;-93
2021/09/24 13:37:03;;;;;;;16.60;10.87;;;10.70;99.90;;;;;;6191511;23;20169;-93
2021/09/24 13:39:35;;;;;;;18.17;11.00;;;10.60;99.90;;;;;;6166735;23;20592;-93
2021/09/24 13:42:10;;;;;;;15.50;11.17;;;10.60;99.90;;;;;;6189557;23;20197;-93
2021/09/24 13:44:42;;;;;;;18.17;11.17;;;10.60;99.90;;;;;;6161645;23;20269;-93
2021/09/24 13:47:14;;;;;;;17.40;10.40;;;10.60;99.90;;;;;;6161645;23;20559;-93
2021/09/24 13:49:45;;;;;;;17.87;11.30;;;10.60;99.90;;;;;;6160464;23;20188;-93
2021/09/24 13:52:36;;;;;;;16.93;10.60;;;10.50;99.90;;;;;;6163855;23;20205;-93
2021/09/24 13:55:15;;;;;;;15.00;11.13;;;10.50;99.90;;;;;;6159828;23;20170;-93
2021/09/24 13:57:50;;;;;;;17.20;11.77;;;10.60;99.90;;;;;;6160638;23;20176;-92
2021/09/24 14:00:22;;;;;;;21.97;12.90;;;10.70;99.90;;;;;;6137191;23;20177;-93
2021/09/24 14:02:54;;;;;;;19.93;12.20;;;10.80;99.90;;;;;;6160326;23;20198;-93
2021/09/24 14:05:26;;;;;;;19.87;12.40;;;10.80;99.90;;;;;;6160063;23;20178;-93